Solon Springs, Wisconsin
Current Conditions -  °F | °C
As of 5:15 PM on Sunday 21 Dec 2014 (Local Time) from KOLG Reporting Station
Overcast Overcast  
Wind Chill: 26°   Ceiling: 700
Heat Index: 32°   Visibility: 10mi
Dew Point: 32°   Wind: 6mph
Humidity: 100%   Direction: 150°SSE
Pressure: 29.77"   Gusts: NA
Location:  46.35°N, 91.82°W
Report Text: KOLG 212315Z AUTO 15005KT 10SM OVC007 00/00 A2977 RMK AO1
Loading
Personal Weather Stations






























Interactive Weather Map New forecast layout! Learn more

10-Day Weather Forecast

Advertisements
Track Severe Weather on mobile